Time;durP1;ratioP1;P1;durP2;ratioP2;P2;SDS_P1;SDS_P2;PMS_P1;PMS_P2;Temp;Humidity;BMP_temperature;BMP_pressure;BME280_temperature;BME280_humidity;BME280_pressure;Samples;Min_cycle;Max_cycle;Signal;HPM_P1;HPM_P2
2023/12/27 00:01:37;;;;;;;10.73;4.70;;;5.30;99.90;;;;;;4401415;28;657034;-79
2023/12/27 00:04:24;;;;;;;3.87;1.67;;;5.30;99.90;;;;;;4397239;28;657596;-79
2023/12/27 00:07:11;;;;;;;13.10;4.50;;;5.40;99.90;;;;;;4426799;28;656945;-80
2023/12/27 00:09:58;;;;;;;7.00;3.17;;;5.50;99.90;;;;;;4405015;28;657232;-79
2023/12/27 00:12:45;;;;;;;12.77;4.60;;;5.50;99.90;;;;;;4426406;28;657310;-79
2023/12/27 00:15:34;;;;;;;11.13;3.70;;;5.50;99.90;;;;;;4400434;28;657560;-78
2023/12/27 00:18:21;;;;;;;7.50;3.17;;;5.50;99.90;;;;;;4435959;28;658404;-79
2023/12/27 00:21:08;;;;;;;9.20;3.60;;;5.60;99.90;;;;;;4401789;28;657292;-78
2023/12/27 00:23:56;;;;;;;7.50;3.03;;;5.60;99.90;;;;;;4427111;28;657095;-79
2023/12/27 00:26:43;;;;;;;10.23;3.50;;;5.70;99.90;;;;;;4403632;28;656832;-78
2023/12/27 00:29:31;;;;;;;10.93;3.00;;;5.70;99.90;;;;;;4425444;28;658920;-78
2023/12/27 00:32:19;;;;;;;7.57;2.03;;;5.80;99.90;;;;;;4403176;28;658308;-78
2023/12/27 00:35:07;;;;;;;9.13;3.10;;;5.80;99.90;;;;;;4429605;28;656600;-79
2023/12/27 00:37:54;;;;;;;9.90;2.80;;;5.80;99.90;;;;;;4410768;28;657566;-79
2023/12/27 00:40:41;;;;;;;6.53;2.47;;;5.80;99.90;;;;;;4428622;28;656572;-78
2023/12/27 00:43:29;;;;;;;7.07;2.90;;;5.80;99.90;;;;;;4405557;28;656190;-78
2023/12/27 00:46:16;;;;;;;9.63;3.70;;;5.80;99.90;;;;;;4431074;28;657045;-78
2023/12/27 00:49:04;;;;;;;9.47;2.90;;;5.80;99.90;;;;;;4413844;28;656959;-78
2023/12/27 00:51:51;;;;;;;7.37;2.90;;;5.90;99.90;;;;;;4434940;28;656738;-79
2023/12/27 00:54:39;;;;;;;9.00;3.13;;;5.90;99.90;;;;;;4402783;28;657696;-79
2023/12/27 00:57:26;;;;;;;7.30;2.83;;;5.90;99.90;;;;;;4431629;28;656744;-79
2023/12/27 01:00:14;;;;;;;10.27;2.43;;;5.90;99.90;;;;;;4408813;28;656944;-79
2023/12/27 01:03:01;;;;;;;6.60;2.73;;;5.80;99.90;;;;;;4430306;28;657921;-79
2023/12/27 01:05:50;;;;;;;9.20;3.13;;;5.90;99.90;;;;;;4408716;28;656459;-78
2023/12/27 01:08:37;;;;;;;11.43;4.20;;;6.00;99.90;;;;;;4428530;28;657051;-77
2023/12/27 01:11:27;;;;;;;6.30;2.93;;;6.00;99.90;;;;;;4427858;28;658090;-79
2023/12/27 01:14:16;;;;;;;11.27;3.03;;;6.00;99.90;;;;;;4415316;28;657800;-78
2023/12/27 01:17:04;;;;;;;7.70;2.43;;;6.10;99.90;;;;;;4415314;28;657949;-78
2023/12/27 01:19:51;;;;;;;5.07;2.10;;;6.10;99.90;;;;;;4427969;28;657162;-79
2023/12/27 01:22:39;;;;;;;8.23;2.43;;;6.10;99.90;;;;;;4412928;28;657088;-78
2023/12/27 01:25:26;;;;;;;5.53;2.07;;;6.10;99.90;;;;;;4425434;28;657455;-78
2023/12/27 01:28:14;;;;;;;8.30;2.53;;;6.20;99.90;;;;;;4404309;28;656591;-79
2023/12/27 01:31:02;;;;;;;3.60;1.40;;;6.10;99.90;;;;;;4424293;28;656743;-78
2023/12/27 01:33:49;;;;;;;4.50;2.07;;;6.20;99.90;;;;;;4407158;28;657810;-78
2023/12/27 01:36:36;;;;;;;4.87;2.00;;;6.20;99.90;;;;;;4433402;28;656599;-78
2023/12/27 01:39:25;;;;;;;5.23;1.70;;;6.30;99.90;;;;;;4397069;28;656857;-78
2023/12/27 01:42:12;;;;;;;2.20;1.20;;;6.30;99.90;;;;;;4431847;28;656503;-79
2023/12/27 01:44:59;;;;;;;3.97;2.00;;;6.30;99.90;;;;;;4397240;28;656698;-79
2023/12/27 01:47:46;;;;;;;5.20;1.93;;;6.20;99.90;;;;;;4425978;28;656677;-79
2023/12/27 01:50:33;;;;;;;1.53;0.73;;;6.20;99.90;;;;;;4403618;28;656351;-79
2023/12/27 01:53:21;;;;;;;11.03;1.70;;;6.30;99.90;;;;;;4420863;28;656719;-78
2023/12/27 01:56:10;;;;;;;5.90;1.63;;;6.20;99.90;;;;;;4401373;28;658091;-78
2023/12/27 01:58:58;;;;;;;4.67;1.70;;;6.30;99.90;;;;;;4423675;28;656123;-78
2023/12/27 02:01:45;;;;;;;4.63;1.70;;;6.20;99.90;;;;;;4427006;28;656884;-78
2023/12/27 02:04:32;;;;;;;4.40;1.53;;;6.20;99.90;;;;;;4401546;28;657017;-78
2023/12/27 02:07:20;;;;;;;6.60;1.37;;;6.20;99.90;;;;;;4436610;28;656768;-78
2023/12/27 02:10:07;;;;;;;4.23;1.43;;;6.20;99.90;;;;;;4436133;28;656545;-79
2023/12/27 02:12:56;;;;;;;7.37;1.27;;;6.10;99.90;;;;;;4412024;28;657985;-78
2023/12/27 02:15:43;;;;;;;3.70;1.30;;;6.20;99.90;;;;;;4407740;28;656979;-77
2023/12/27 02:18:30;;;;;;;3.33;1.40;;;6.20;99.90;;;;;;4425677;28;657138;-77
2023/12/27 02:21:18;;;;;;;8.80;1.60;;;6.20;99.90;;;;;;4408364;28;656660;-77
2023/12/27 02:24:05;;;;;;;7.00;1.33;;;6.20;99.90;;;;;;4423983;28;657286;-78
2023/12/27 02:26:54;;;;;;;4.33;1.30;;;6.20;99.90;;;;;;4416792;28;656681;-78
2023/12/27 02:29:41;;;;;;;3.80;0.93;;;6.20;99.90;;;;;;4439729;28;656362;-78
2023/12/27 02:32:28;;;;;;;3.57;1.07;;;6.20;99.90;;;;;;4411141;28;656613;-79
2023/12/27 02:35:16;;;;;;;1.63;0.90;;;6.10;99.90;;;;;;4428592;28;657264;-78
2023/12/27 02:38:03;;;;;;;3.33;1.20;;;6.10;99.90;;;;;;4408812;28;656754;-78
2023/12/27 02:40:50;;;;;;;2.50;1.00;;;6.10;99.90;;;;;;4431820;28;657131;-79
2023/12/27 02:43:39;;;;;;;3.50;1.30;;;6.10;99.90;;;;;;4410919;28;657509;-77
2023/12/27 02:46:26;;;;;;;4.27;1.10;;;6.00;99.90;;;;;;4427111;28;656467;-78
2023/12/27 02:49:13;;;;;;;4.20;1.40;;;6.10;99.90;;;;;;4402713;28;656942;-77
2023/12/27 02:52:00;;;;;;;5.07;1.47;;;6.00;99.90;;;;;;4435266;28;656671;-79
2023/12/27 02:54:48;;;;;;;4.40;1.00;;;6.00;99.90;;;;;;4408912;28;656474;-77
2023/12/27 02:57:35;;;;;;;3.07;1.10;;;6.00;99.90;;;;;;4419591;28;658059;-78
2023/12/27 03:00:24;;;;;;;3.50;1.30;;;6.00;99.90;;;;;;4412935;28;657117;-76
2023/12/27 03:03:11;;;;;;;4.63;1.50;;;5.90;99.90;;;;;;4426278;28;657204;-79
2023/12/27 03:05:58;;;;;;;5.23;1.30;;;5.90;99.90;;;;;;4411575;28;657009;-80
2023/12/27 03:08:45;;;;;;;6.03;1.27;;;5.80;99.90;;;;;;4438092;28;656974;-82
2023/12/27 03:11:33;;;;;;;5.17;1.53;;;5.50;99.90;;;;;;4400526;28;657093;-80
2023/12/27 03:14:20;;;;;;;8.83;2.37;;;5.10;99.90;;;;;;4420226;28;656959;-84
2023/12/27 03:17:09;;;;;;;4.03;1.70;;;4.60;99.90;;;;;;4417470;28;656161;-76
2023/12/27 03:19:57;;;;;;;4.73;2.13;;;4.40;99.90;;;;;;4431838;28;658541;-80
2023/12/27 03:22:44;;;;;;;9.00;2.43;;;4.30;99.90;;;;;;4405629;28;656665;-76
2023/12/27 03:25:31;;;;;;;12.33;2.30;;;4.30;99.90;;;;;;4426296;28;657201;-80
2023/12/27 03:28:18;;;;;;;4.53;2.50;;;4.20;99.90;;;;;;4402955;28;657496;-79
2023/12/27 03:31:05;;;;;;;4.07;2.05;;;4.20;99.90;;;;;;4426671;28;657360;-78
2023/12/27 03:33:54;;;;;;;8.87;3.47;;;4.10;99.90;;;;;;4410747;28;657096;-77
2023/12/27 03:36:41;;;;;;;6.90;2.80;;;4.20;99.90;;;;;;4433255;28;656886;-80
2023/12/27 03:39:28;;;;;;;6.70;2.40;;;4.10;99.90;;;;;;4411284;28;656410;-80
2023/12/27 03:42:19;;;;;;;7.83;2.97;;;4.10;99.90;;;;;;4425713;28;656614;-80
2023/12/27 03:45:07;;;;;;;7.30;2.73;;;4.20;99.90;;;;;;4406329;28;656933;-80
2023/12/27 03:47:54;;;;;;;6.20;1.90;;;4.30;99.90;;;;;;4408644;28;656706;-77
2023/12/27 03:50:43;;;;;;;8.07;2.90;;;4.30;99.90;;;;;;4430194;28;656894;-80
2023/12/27 03:53:30;;;;;;;6.27;2.70;;;4.20;99.90;;;;;;4407198;28;656897;-79
2023/12/27 03:56:17;;;;;;;5.03;2.73;;;4.10;99.90;;;;;;4422962;28;656703;-76
2023/12/27 03:59:06;;;;;;;8.70;2.80;;;4.00;99.90;;;;;;4430566;28;656886;-79
2023/12/27 04:01:53;;;;;;;5.13;1.93;;;4.10;99.90;;;;;;4411928;28;656535;-78
2023/12/27 04:04:40;;;;;;;4.93;1.63;;;4.10;99.90;;;;;;4422390;28;657457;-79
2023/12/27 04:07:29;;;;;;;4.00;1.57;;;4.00;99.90;;;;;;4423882;28;656987;-77
2023/12/27 04:10:17;;;;;;;4.27;1.90;;;4.20;99.90;;;;;;4414996;28;657278;-79
2023/12/27 04:13:04;;;;;;;4.57;1.70;;;4.10;99.90;;;;;;4407318;28;657172;-80
2023/12/27 04:15:51;;;;;;;3.03;1.67;;;4.00;99.90;;;;;;4433590;28;656109;-79
2023/12/27 04:18:38;;;;;;;8.20;1.63;;;4.00;99.90;;;;;;4412864;28;656443;-78
2023/12/27 04:21:25;;;;;;;4.60;1.73;;;4.00;99.90;;;;;;4427950;28;656933;-78
2023/12/27 04:24:14;;;;;;;4.03;1.30;;;4.30;99.90;;;;;;4405613;28;657007;-78
2023/12/27 04:27:01;;;;;;;6.13;1.67;;;4.30;99.90;;;;;;4416324;28;655707;-79
2023/12/27 04:29:48;;;;;;;3.47;1.20;;;4.30;99.90;;;;;;4399863;28;657356;-79
2023/12/27 04:32:35;;;;;;;5.43;1.40;;;4.30;99.90;;;;;;4434168;28;657969;-79
2023/12/27 04:35:23;;;;;;;2.47;1.10;;;4.20;99.90;;;;;;4406442;28;656525;-78
2023/12/27 04:38:13;;;;;;;1.70;0.93;;;4.20;99.90;;;;;;4421970;28;657078;-79
2023/12/27 04:41:06;;;;;;;4.90;1.60;;;4.10;99.90;;;;;;4413187;28;656903;-79
2023/12/27 04:43:54;;;;;;;3.00;1.23;;;4.10;99.90;;;;;;4407956;28;657298;-79
2023/12/27 04:46:41;;;;;;;5.23;1.60;;;4.00;99.90;;;;;;4425620;28;656429;-79
2023/12/27 04:49:28;;;;;;;3.83;1.23;;;4.10;99.90;;;;;;4408950;28;657783;-78
2023/12/27 04:52:15;;;;;;;4.07;1.20;;;4.00;99.90;;;;;;4430786;28;656610;-79
2023/12/27 04:55:02;;;;;;;2.03;1.03;;;3.90;99.90;;;;;;4413787;28;656896;-77
2023/12/27 04:57:51;;;;;;;4.53;1.10;;;3.90;99.90;;;;;;4429160;28;657293;-78
2023/12/27 05:00:38;;;;;;;3.93;0.53;;;3.90;99.90;;;;;;4412925;28;657444;-79
2023/12/27 05:03:27;;;;;;;2.20;0.80;;;3.90;99.90;;;;;;4434502;28;657030;-78
2023/12/27 05:06:14;;;;;;;4.40;1.07;;;3.90;99.90;;;;;;4412477;28;658528;-78
2023/12/27 05:09:04;;;;;;;2.60;1.00;;;3.80;99.90;;;;;;4430955;28;656588;-79
2023/12/27 05:11:51;;;;;;;6.23;1.00;;;3.80;99.90;;;;;;4405571;28;656484;-79
2023/12/27 05:14:40;;;;;;;4.80;1.10;;;3.90;99.90;;;;;;4411962;28;656525;-78
2023/12/27 05:17:27;;;;;;;4.63;0.90;;;3.80;99.90;;;;;;4430765;28;656152;-79
2023/12/27 05:20:14;;;;;;;6.00;0.90;;;3.70;99.90;;;;;;4413730;28;657136;-79
2023/12/27 05:23:01;;;;;;;1.70;0.57;;;3.60;99.90;;;;;;4430533;28;656435;-79
2023/12/27 05:25:49;;;;;;;3.27;1.00;;;3.60;99.90;;;;;;4410858;28;656513;-77
2023/12/27 05:28:36;;;;;;;7.73;0.87;;;3.60;99.90;;;;;;4421326;28;657282;-78
2023/12/27 05:31:24;;;;;;;3.67;0.90;;;3.50;99.90;;;;;;4407981;28;656669;-78
2023/12/27 05:34:11;;;;;;;3.20;0.47;;;3.40;99.90;;;;;;4435213;28;656193;-79
2023/12/27 05:36:59;;;;;;;5.27;0.90;;;3.30;99.90;;;;;;4404489;28;656346;-78
2023/12/27 05:39:46;;;;;;;5.20;0.70;;;3.40;99.90;;;;;;4434661;28;656801;-78
2023/12/27 05:42:33;;;;;;;7.23;1.20;;;3.40;99.90;;;;;;4412616;28;656860;-77
2023/12/27 05:45:20;;;;;;;3.70;1.00;;;3.50;99.90;;;;;;4436274;28;656530;-78
2023/12/27 05:48:09;;;;;;;1.90;0.60;;;3.50;99.90;;;;;;4407204;28;656945;-76
2023/12/27 05:50:56;;;;;;;6.63;1.27;;;3.50;99.90;;;;;;4429603;28;656666;-78
2023/12/27 05:53:43;;;;;;;3.70;1.10;;;3.40;99.90;;;;;;4418596;28;656911;-78
2023/12/27 05:56:30;;;;;;;4.73;1.37;;;3.40;99.90;;;;;;4436848;28;657863;-78
2023/12/27 05:59:18;;;;;;;6.07;2.03;;;3.40;99.90;;;;;;4421209;28;656774;-78
2023/12/27 06:02:06;;;;;;;4.63;1.10;;;3.30;99.90;;;;;;4435948;28;656582;-79
2023/12/27 06:04:55;;;;;;;9.47;1.53;;;3.30;99.90;;;;;;4408741;28;657205;-78
2023/12/27 06:07:42;;;;;;;3.30;1.20;;;3.30;99.90;;;;;;4409758;28;656698;-77
2023/12/27 06:10:31;;;;;;;6.07;1.07;;;3.30;99.90;;;;;;4438524;28;656992;-78
2023/12/27 06:13:18;;;;;;;6.03;1.03;;;3.20;99.90;;;;;;4416251;28;657014;-78
2023/12/27 06:16:06;;;;;;;5.93;1.47;;;3.20;99.90;;;;;;4438009;28;657162;-79
2023/12/27 06:18:54;;;;;;;7.37;1.40;;;3.20;99.90;;;;;;4423775;28;657581;-79
2023/12/27 06:21:43;;;;;;;10.10;1.90;;;3.30;99.90;;;;;;4436136;28;656473;-78
2023/12/27 06:24:31;;;;;;;3.33;1.33;;;3.30;99.90;;;;;;4410831;28;658130;-79
2023/12/27 06:27:18;;;;;;;9.67;1.90;;;3.30;99.90;;;;;;4412993;28;657183;-78
2023/12/27 06:30:08;;;;;;;4.60;1.20;;;3.30;99.90;;;;;;4433225;28;657644;-78
2023/12/27 06:32:55;;;;;;;5.43;1.63;;;3.30;99.90;;;;;;4400731;28;658524;-78
2023/12/27 06:35:42;;;;;;;4.13;1.40;;;3.30;99.90;;;;;;4402835;28;656478;-77
2023/12/27 06:38:31;;;;;;;3.43;1.47;;;3.30;99.90;;;;;;4429982;28;657301;-78
2023/12/27 06:41:18;;;;;;;5.53;1.33;;;3.30;99.90;;;;;;4403933;28;656479;-77
2023/12/27 06:44:05;;;;;;;1.80;0.97;;;3.20;99.90;;;;;;4422631;28;657131;-79
2023/12/27 06:46:52;;;;;;;5.05;1.35;;;3.10;99.90;;;;;;4410476;28;657299;-76
2023/12/27 06:49:40;;;;;;;3.03;1.00;;;3.10;99.90;;;;;;4427537;28;656836;-78
2023/12/27 06:52:28;;;;;;;4.80;0.97;;;3.00;99.90;;;;;;4431563;28;656620;-78
2023/12/27 06:55:16;;;;;;;9.20;1.57;;;3.00;99.90;;;;;;4424402;28;657537;-78
2023/12/27 06:58:04;;;;;;;5.53;1.20;;;3.00;99.90;;;;;;4408678;28;656403;-78
2023/12/27 07:00:51;;;;;;;3.33;1.00;;;3.00;99.90;;;;;;4420350;28;656999;-79
2023/12/27 07:03:38;;;;;;;6.93;1.30;;;3.00;99.90;;;;;;4402628;28;656910;-78
2023/12/27 07:06:26;;;;;;;2.15;0.85;;;2.90;99.90;;;;;;4426607;28;657687;-79
2023/12/27 07:09:13;;;;;;;7.70;1.33;;;3.00;99.90;;;;;;4404736;28;656626;-78
2023/12/27 07:12:01;;;;;;;4.97;1.33;;;3.00;99.90;;;;;;4428768;28;656637;-78
2023/12/27 07:14:49;;;;;;;4.50;1.13;;;2.90;99.90;;;;;;4409722;28;656256;-78
2023/12/27 07:17:36;;;;;;;4.27;1.10;;;3.00;99.90;;;;;;4426265;28;656571;-78
2023/12/27 07:20:23;;;;;;;4.65;1.45;;;2.90;99.90;;;;;;4403751;28;656454;-78
2023/12/27 07:23:11;;;;;;;4.10;1.20;;;2.90;99.90;;;;;;4426634;28;656974;-78
2023/12/27 07:25:59;;;;;;;4.07;0.90;;;2.90;99.90;;;;;;4408924;28;656761;-77
2023/12/27 07:28:48;;;;;;;4.00;1.20;;;2.90;99.90;;;;;;4422900;28;657263;-79
2023/12/27 07:31:35;;;;;;;3.83;1.30;;;3.00;99.90;;;;;;4420083;28;657301;-79
2023/12/27 07:34:22;;;;;;;7.33;1.60;;;2.90;99.90;;;;;;4408596;28;657297;-78
2023/12/27 07:37:10;;;;;;;6.33;1.17;;;2.90;99.90;;;;;;4420083;28;657043;-77
2023/12/27 07:39:57;;;;;;;3.70;1.13;;;2.90;99.90;;;;;;4432992;28;656331;-78
2023/12/27 07:42:44;;;;;;;6.30;1.20;;;3.00;99.90;;;;;;4406401;28;656974;-79
2023/12/27 07:45:34;;;;;;;4.53;1.57;;;3.00;99.90;;;;;;4427186;28;656913;-79
2023/12/27 07:48:22;;;;;;;5.47;1.20;;;3.00;99.90;;;;;;4406615;28;656621;-79
2023/12/27 07:51:09;;;;;;;6.80;1.70;;;3.10;99.90;;;;;;4409331;28;657498;-78
2023/12/27 07:53:57;;;;;;;1.80;0.80;;;3.10;99.90;;;;;;4441597;28;656059;-79
2023/12/27 07:56:44;;;;;;;8.70;1.13;;;3.10;99.90;;;;;;4416341;28;656396;-79
2023/12/27 07:59:31;;;;;;;7.13;1.40;;;3.10;99.90;;;;;;4417413;28;655504;-79
2023/12/27 08:02:20;;;;;;;7.03;1.50;;;3.10;99.90;;;;;;4398159;28;656445;-78
2023/12/27 08:05:08;;;;;;;9.17;2.17;;;3.20;99.90;;;;;;4412679;28;656553;-77
2023/12/27 08:07:55;;;;;;;7.00;1.97;;;3.20;99.90;;;;;;4426366;28;657671;-77
2023/12/27 08:10:43;;;;;;;5.67;1.00;;;3.20;99.90;;;;;;4402133;28;656414;-78
2023/12/27 08:13:30;;;;;;;5.43;1.90;;;3.30;99.90;;;;;;4435476;28;656825;-79
2023/12/27 08:16:17;;;;;;;4.57;1.67;;;3.30;99.90;;;;;;4412831;28;656525;-77
2023/12/27 08:19:06;;;;;;;8.10;1.70;;;3.30;99.90;;;;;;4439449;28;656419;-79
2023/12/27 08:21:53;;;;;;;10.27;1.60;;;3.40;99.90;;;;;;4411762;28;655951;-78
2023/12/27 08:24:40;;;;;;;6.63;1.40;;;3.50;99.90;;;;;;4436180;28;657237;-78
2023/12/27 08:27:27;;;;;;;6.50;1.50;;;3.80;99.90;;;;;;4411198;28;656295;-77
2023/12/27 08:30:15;;;;;;;4.43;1.20;;;3.90;99.90;;;;;;4432033;28;656543;-78
2023/12/27 08:33:06;;;;;;;4.57;2.23;;;4.00;99.90;;;;;;4418744;28;657189;-78
2023/12/27 08:35:54;;;;;;;1.57;0.80;;;4.00;99.90;;;;;;4388329;28;656454;-78
2023/12/27 08:38:42;;;;;;;7.40;1.80;;;4.00;99.90;;;;;;4421972;28;656070;-78
2023/12/27 08:41:29;;;;;;;12.03;2.20;;;4.00;99.90;;;;;;4402502;28;657538;-78
2023/12/27 08:44:17;;;;;;;3.07;1.20;;;4.30;99.90;;;;;;4418073;28;658024;-78
2023/12/27 08:47:05;;;;;;;7.43;1.63;;;4.50;99.90;;;;;;4398621;28;656943;-78
2023/12/27 08:49:55;;;;;;;5.73;1.40;;;4.20;99.90;;;;;;4420211;28;656429;-78
2023/12/27 08:52:43;;;;;;;10.10;2.17;;;4.20;99.90;;;;;;4399011;28;656247;-78
2023/12/27 08:55:31;;;;;;;4.37;1.43;;;4.10;99.90;;;;;;4405064;28;658558;-79
2023/12/27 08:58:18;;;;;;;7.07;2.20;;;4.20;99.90;;;;;;4399661;28;656284;-79
2023/12/27 09:01:05;;;;;;;7.27;2.03;;;4.30;99.90;;;;;;4427290;28;657194;-78
2023/12/27 09:03:52;;;;;;;8.47;2.17;;;4.50;99.90;;;;;;4402539;28;656142;-77
2023/12/27 09:06:40;;;;;;;1.37;0.80;;;4.80;99.90;;;;;;4429710;28;656818;-78
2023/12/27 09:09:29;;;;;;;9.07;2.60;;;5.10;99.90;;;;;;4422401;28;656226;-79
2023/12/27 09:12:16;;;;;;;5.13;2.00;;;5.30;99.90;;;;;;4400258;28;656142;-78
2023/12/27 09:15:04;;;;;;;8.43;2.33;;;5.50;99.90;;;;;;4398854;28;656577;-79
2023/12/27 09:17:51;;;;;;;7.57;1.17;;;4.90;99.90;;;;;;4415036;28;657107;-77
2023/12/27 09:20:38;;;;;;;12.27;2.20;;;5.30;99.90;;;;;;4404277;28;656446;-78
2023/12/27 09:23:26;;;;;;;10.13;1.85;;;5.30;99.90;;;;;;4428809;28;658156;-78
2023/12/27 09:26:14;;;;;;;7.73;1.43;;;5.70;99.90;;;;;;4403288;28;658113;-77
2023/12/27 09:29:02;;;;;;;10.07;2.03;;;6.20;99.90;;;;;;4426055;28;656585;-79
2023/12/27 09:31:49;;;;;;;10.47;2.37;;;6.50;99.90;;;;;;4404103;28;657208;-79
2023/12/27 09:34:36;;;;;;;11.43;2.00;;;6.70;99.90;;;;;;4415513;28;657996;-78
2023/12/27 09:37:23;;;;;;;6.97;2.20;;;6.40;99.90;;;;;;4404457;28;658322;-78
2023/12/27 09:40:11;;;;;;;4.93;1.30;;;6.60;99.90;;;;;;4426397;28;656910;-78
2023/12/27 09:43:00;;;;;;;9.33;2.07;;;7.40;99.90;;;;;;4408306;28;656656;-78
2023/12/27 09:45:47;;;;;;;7.70;2.10;;;7.20;99.90;;;;;;4422665;28;657060;-76
2023/12/27 09:48:35;;;;;;;8.83;1.70;;;6.40;99.90;;;;;;4430654;28;656777;-77
2023/12/27 09:51:23;;;;;;;5.10;1.27;;;6.40;99.90;;;;;;4415348;28;657133;-77
2023/12/27 09:54:11;;;;;;;8.85;1.88;;;7.30;99.90;;;;;;4425874;28;657124;-78
2023/12/27 09:56:58;;;;;;;9.03;1.97;;;6.60;99.90;;;;;;4402253;28;656257;-77
2023/12/27 09:59:47;;;;;;;9.17;2.40;;;6.70;99.90;;;;;;4421853;28;658220;-78
2023/12/27 10:02:34;;;;;;;6.43;1.63;;;6.80;99.90;;;;;;4404815;28;656398;-78
2023/12/27 10:05:22;;;;;;;3.13;1.50;;;7.40;99.90;;;;;;4427314;28;656408;-78
2023/12/27 10:08:10;;;;;;;6.50;1.70;;;7.20;99.90;;;;;;4398534;28;657436;-76
2023/12/27 10:10:57;;;;;;;16.43;2.40;;;6.90;99.90;;;;;;4427028;28;656315;-78
2023/12/27 10:13:45;;;;;;;5.67;1.87;;;7.10;99.90;;;;;;4423297;28;658019;-78
2023/12/27 10:16:35;;;;;;;7.87;2.00;;;8.20;91.70;;;;;;4425360;28;656795;-77
2023/12/27 10:19:37;;;;;;;11.77;2.03;;;8.50;97.10;;;;;;4407032;28;657149;-77
2023/12/27 10:22:24;;;;;;;7.80;2.20;;;8.10;96.10;;;;;;4375096;28;658481;-78
2023/12/27 10:25:12;;;;;;;8.57;1.97;;;7.80;99.90;;;;;;4397916;28;657867;-76
2023/12/27 10:28:00;;;;;;;8.67;1.93;;;8.70;91.70;;;;;;4426629;28;656933;-77
2023/12/27 10:30:47;;;;;;;5.80;2.00;;;8.60;80.10;;;;;;4426909;28;656633;-77
2023/12/27 10:33:42;;;;;;;6.67;1.93;;;8.40;92.30;;;;;;4429909;28;656433;-77
2023/12/27 10:36:30;;;;;;;4.33;1.80;;;8.80;71.60;;;;;;4381411;28;656611;-79
2023/12/27 10:39:18;;;;;;;13.63;2.33;;;8.90;74.40;;;;;;4410134;28;656821;-77
2023/12/27 10:42:07;;;;;;;7.07;2.17;;;8.70;93.80;;;;;;4430693;28;656906;-78
2023/12/27 10:44:54;;;;;;;3.83;1.30;;;7.50;99.50;;;;;;4400966;28;657193;-77
2023/12/27 10:47:41;;;;;;;6.60;1.13;;;7.30;99.90;;;;;;4418972;28;657411;-77
2023/12/27 10:50:30;;;;;;;6.43;1.57;;;8.30;77.70;;;;;;4404427;28;657857;-77
2023/12/27 10:53:20;;;;;;;10.17;1.93;;;8.80;73.60;;;;;;4407321;28;657147;-77
2023/12/27 10:56:07;;;;;;;6.70;1.30;;;8.80;67.80;;;;;;4424975;28;657605;-76
2023/12/27 10:58:54;;;;;;;4.67;1.40;;;8.50;75.40;;;;;;4403185;28;657431;-77
2023/12/27 11:01:43;;;;;;;5.60;1.57;;;8.70;83.30;;;;;;4420684;28;657230;-77
2023/12/27 11:04:30;;;;;;;6.20;1.87;;;9.40;69.70;;;;;;4402275;28;657231;-78
2023/12/27 11:07:19;;;;;;;6.03;1.90;;;9.20;63.20;;;;;;4409439;28;656491;-76
2023/12/27 11:10:07;;;;;;;8.80;2.07;;;9.60;64.00;;;;;;4427678;28;656820;-76
2023/12/27 11:12:54;;;;;;;5.63;1.77;;;9.50;64.70;;;;;;4403698;28;657132;-77
2023/12/27 11:15:44;;;;;;;5.38;1.60;;;8.80;75.70;;;;;;4415070;28;656355;-77
2023/12/27 11:18:31;;;;;;;10.37;1.77;;;8.80;77.00;;;;;;4406349;28;656466;-77
2023/12/27 11:21:19;;;;;;;7.67;2.27;;;8.50;73.40;;;;;;4399394;28;657480;-77
2023/12/27 11:24:08;;;;;;;8.17;2.20;;;8.80;84.30;;;;;;4417913;28;656485;-77
2023/12/27 11:26:59;;;;;;;10.33;1.63;;;8.30;90.40;;;;;;4405880;28;657634;-77
2023/12/27 11:29:47;;;;;;;7.78;1.95;;;8.70;79.50;;;;;;4408923;28;658303;-77
2023/12/27 11:32:34;;;;;;;1.47;0.77;;;9.20;64.80;;;;;;4412654;28;657360;-76
2023/12/27 11:35:24;;;;;;;4.70;1.50;;;8.40;87.30;;;;;;4422186;28;656787;-77
2023/12/27 11:38:15;;;;;;;1.45;0.65;;;8.20;78.40;;;;;;4408627;28;657416;-76
2023/12/27 11:41:05;;;;;;;4.47;1.40;;;8.60;67.90;;;;;;4390039;28;657147;-76
2023/12/27 11:43:53;;;;;;;4.53;1.07;;;8.90;73.90;;;;;;4408678;28;657265;-75
2023/12/27 11:46:41;;;;;;;6.27;1.30;;;8.70;69.80;;;;;;4430227;28;656896;-77
2023/12/27 11:49:31;;;;;;;8.03;1.73;;;9.10;69.30;;;;;;4409315;28;656538;-77
2023/12/27 11:52:19;;;;;;;5.47;1.20;;;8.70;69.60;;;;;;4407125;28;656890;-77
2023/12/27 11:55:16;;;;;;;5.53;1.80;;;8.40;86.60;;;;;;4428061;28;656262;-77
2023/12/27 11:58:04;;;;;;;6.80;1.83;;;9.30;88.50;;;;;;4395849;28;657367;-77
2023/12/27 12:00:52;;;;;;;7.53;1.93;;;8.20;72.70;;;;;;4428519;28;656625;-77
2023/12/27 12:03:39;;;;;;;4.70;0.53;;;9.50;67.70;;;;;;4407544;28;657021;-77
2023/12/27 12:06:36;;;;;;;4.33;1.57;;;10.40;59.40;;;;;;4427641;28;656973;-77
2023/12/27 12:09:25;;;;;;;8.33;1.80;;;10.50;57.40;;;;;;4406788;28;657576;-77
2023/12/27 12:12:16;;;;;;;10.13;1.70;;;10.50;57.10;;;;;;4401866;28;658559;-77
2023/12/27 12:15:06;;;;;;;0.63;0.40;;;10.10;56.90;;;;;;4404396;28;658900;-76
2023/12/27 12:17:53;;;;;;;6.07;1.60;;;10.40;54.70;;;;;;4405470;28;658049;-77
2023/12/27 12:20:42;;;;;;;6.07;1.40;;;9.50;63.90;;;;;;4432604;28;658558;-77
2023/12/27 12:23:30;;;;;;;5.57;1.70;;;10.20;58.30;;;;;;4413494;28;656918;-77
2023/12/27 12:26:18;;;;;;;6.23;1.30;;;9.90;56.00;;;;;;4416420;28;658195;-76
2023/12/27 12:29:08;;;;;;;6.00;1.20;;;9.90;56.00;;;;;;4427704;28;657428;-77
2023/12/27 12:31:57;;;;;;;5.23;1.20;;;9.50;57.60;;;;;;4402301;28;656565;-77
2023/12/27 12:34:44;;;;;;;2.23;0.93;;;9.80;56.60;;;;;;4409767;28;656639;-77
2023/12/27 12:37:31;;;;;;;3.70;1.37;;;8.40;59.90;;;;;;4432258;28;656742;-76
2023/12/27 12:40:18;;;;;;;4.20;0.90;;;8.20;67.90;;;;;;4404168;28;656562;-77
2023/12/27 12:43:05;;;;;;;3.83;1.07;;;8.20;67.00;;;;;;4423486;28;657784;-76
2023/12/27 12:45:52;;;;;;;0.67;0.30;;;8.90;59.60;;;;;;4408024;28;657190;-75
2023/12/27 12:48:42;;;;;;;3.30;1.20;;;8.50;61.70;;;;;;4425969;28;657408;-76
2023/12/27 12:51:29;;;;;;;8.97;1.53;;;8.20;67.10;;;;;;4409203;28;657078;-77
2023/12/27 12:54:16;;;;;;;9.67;1.90;;;7.90;69.80;;;;;;4439393;28;656678;-76
2023/12/27 12:57:04;;;;;;;4.90;1.20;;;7.70;67.60;;;;;;4404850;28;656604;-76
2023/12/27 12:59:51;;;;;;;3.50;1.37;;;7.90;68.60;;;;;;4425839;28;656146;-76
2023/12/27 13:02:38;;;;;;;1.87;0.70;;;8.60;62.80;;;;;;4401884;28;656616;-76
2023/12/27 13:05:28;;;;;;;5.70;1.60;;;8.10;60.00;;;;;;4431090;28;657324;-77
2023/12/27 13:08:16;;;;;;;3.63;1.50;;;8.10;64.60;;;;;;4398214;28;657252;-75
2023/12/27 13:11:03;;;;;;;5.87;1.50;;;7.70;62.70;;;;;;4407621;28;656787;-78
2023/12/27 13:13:51;;;;;;;5.37;1.50;;;8.50;67.50;;;;;;4427212;28;657386;-77
2023/12/27 13:16:38;;;;;;;4.47;1.70;;;9.10;58.60;;;;;;4406155;28;656710;-77
2023/12/27 13:19:25;;;;;;;3.77;1.27;;;8.90;64.10;;;;;;4429431;28;657208;-75
2023/12/27 13:22:14;;;;;;;4.73;1.60;;;9.00;59.80;;;;;;4412032;28;656346;-76
2023/12/27 13:25:01;;;;;;;5.67;1.97;;;8.50;60.70;;;;;;4423865;28;656694;-77
2023/12/27 13:27:48;;;;;;;6.40;1.87;;;8.50;58.50;;;;;;4401498;28;656793;-77
2023/12/27 13:30:35;;;;;;;3.60;1.50;;;8.00;60.80;;;;;;4436450;28;656722;-77
2023/12/27 13:33:24;;;;;;;4.17;1.60;;;7.90;63.80;;;;;;4412216;28;656592;-77
2023/12/27 13:36:12;;;;;;;4.53;1.33;;;8.10;68.30;;;;;;4408090;28;656853;-77
2023/12/27 13:39:00;;;;;;;6.77;1.63;;;7.90;62.00;;;;;;4397414;28;656812;-77
2023/12/27 13:41:47;;;;;;;3.97;1.63;;;7.60;77.40;;;;;;4406652;28;656210;-76
2023/12/27 13:44:36;;;;;;;4.40;1.73;;;7.90;86.10;;;;;;4427559;28;656819;-77
2023/12/27 13:47:24;;;;;;;4.23;1.23;;;7.50;71.70;;;;;;4397474;28;656203;-77
2023/12/27 13:50:11;;;;;;;8.60;2.37;;;7.30;79.70;;;;;;4416000;28;657283;-78
2023/12/27 13:52:58;;;;;;;9.63;2.20;;;7.30;82.70;;;;;;4400327;28;657000;-76
2023/12/27 13:55:47;;;;;;;9.85;1.88;;;7.30;98.90;;;;;;4419886;28;656860;-78
2023/12/27 13:58:35;;;;;;;6.93;2.33;;;8.20;67.80;;;;;;4385573;28;657555;-78
2023/12/27 14:01:22;;;;;;;9.47;2.47;;;7.70;71.70;;;;;;4417823;28;656803;-76
2023/12/27 14:04:09;;;;;;;6.45;2.50;;;7.40;99.90;;;;;;4420518;28;655871;-77
2023/12/27 14:06:57;;;;;;;7.83;2.60;;;6.90;97.40;;;;;;4424051;28;657410;-77
2023/12/27 14:09:44;;;;;;;7.87;2.90;;;7.10;99.90;;;;;;4403519;28;657946;-77
2023/12/27 14:12:34;;;;;;;11.53;2.90;;;6.80;99.90;;;;;;4424146;28;656290;-77
2023/12/27 14:15:22;;;;;;;8.23;2.97;;;6.80;99.90;;;;;;4407441;28;658454;-78
2023/12/27 14:18:09;;;;;;;11.07;3.40;;;6.60;99.90;;;;;;4388590;28;657151;-77
2023/12/27 14:20:56;;;;;;;10.67;3.47;;;6.20;99.90;;;;;;4423596;28;657920;-77
2023/12/27 14:23:43;;;;;;;8.77;3.40;;;5.50;99.90;;;;;;4406401;28;658329;-78
2023/12/27 14:26:30;;;;;;;10.80;3.43;;;5.40;99.90;;;;;;4431054;28;657093;-78
2023/12/27 14:29:19;;;;;;;10.13;3.33;;;5.10;99.90;;;;;;4411411;28;658451;-78
2023/12/27 14:32:06;;;;;;;9.20;3.63;;;4.90;99.90;;;;;;4426648;28;657719;-78